createdAt,value
2018-09-02T00:00:15.797Z,13.60
2018-09-02T00:01:15.985Z,13.52
2018-09-02T00:02:16.186Z,13.52
2018-09-02T00:03:16.374Z,13.41
2018-09-02T00:04:16.552Z,13.33
2018-09-02T00:05:16.753Z,13.42
2018-09-02T00:06:16.934Z,13.42
2018-09-02T00:07:17.141Z,13.38
2018-09-02T00:08:17.318Z,13.44
2018-09-02T00:09:17.514Z,13.25
2018-09-02T00:10:17.692Z,13.37
2018-09-02T00:11:17.865Z,13.23
2018-09-02T00:12:18.060Z,13.25
2018-09-02T00:13:18.242Z,13.30
2018-09-02T00:14:18.417Z,13.38
2018-09-02T00:15:18.598Z,13.23
2018-09-02T00:16:18.775Z,13.28
2018-09-02T00:17:18.951Z,13.25
2018-09-02T00:18:19.131Z,13.28
2018-09-02T00:19:19.311Z,13.30
2018-09-02T00:20:19.511Z,13.28
2018-09-02T00:21:19.683Z,13.33
2018-09-02T00:22:19.872Z,13.22
2018-09-02T00:23:20.048Z,13.19
2018-09-02T00:24:20.229Z,13.20
2018-09-02T00:25:20.414Z,13.27
2018-09-02T00:26:20.592Z,13.30
2018-09-02T00:27:20.775Z,13.13
2018-09-02T00:28:20.958Z,13.11
2018-09-02T00:29:21.136Z,13.01
2018-09-02T00:30:21.330Z,13.16
2018-09-02T00:31:21.505Z,13.15
2018-09-02T00:32:21.698Z,13.03
2018-09-02T00:33:21.982Z,13.05
2018-09-02T00:34:22.065Z,13.18
2018-09-02T00:35:22.239Z,13.16
2018-09-02T00:36:22.425Z,13.12
2018-09-02T00:37:22.610Z,13.12
2018-09-02T00:38:22.803Z,13.08
2018-09-02T00:39:22.986Z,13.18
2018-09-02T00:40:23.172Z,13.27
2018-09-02T00:41:23.354Z,13.19
2018-09-02T00:42:23.541Z,13.22
2018-09-02T00:43:23.724Z,13.13
2018-09-02T00:44:23.907Z,13.16
2018-09-02T00:45:24.099Z,13.09
2018-09-02T00:46:24.289Z,13.18
2018-09-02T00:47:24.483Z,13.11
2018-09-02T00:48:24.671Z,13.03
2018-09-02T00:49:24.859Z,13.00
2018-09-02T00:50:25.038Z,13.01
2018-09-02T00:51:25.219Z,13.05
2018-09-02T00:52:25.430Z,13.00
2018-09-02T00:53:25.619Z,13.04
2018-09-02T00:54:25.818Z,13.03
2018-09-02T00:55:26.001Z,13.13
2018-09-02T00:56:26.192Z,13.03
2018-09-02T00:57:26.378Z,13.03
2018-09-02T00:58:26.564Z,13.09
2018-09-02T00:59:26.746Z,13.00
2018-09-02T01:00:26.929Z,13.05
2018-09-02T01:01:27.108Z,12.97
2018-09-02T01:02:27.315Z,13.00
2018-09-02T01:03:27.498Z,12.94
2018-09-02T01:04:27.673Z,13.00
2018-09-02T01:05:27.857Z,12.90
2018-09-02T01:06:28.043Z,12.94
2018-09-02T01:07:28.221Z,13.08
2018-09-02T01:08:28.410Z,12.97
2018-09-02T01:09:35.139Z,12.90
2018-09-02T01:10:33.127Z,12.93
2018-09-02T01:11:32.116Z,12.91
2018-09-02T01:12:33.817Z,12.80
2018-09-02T01:13:33.193Z,12.87
2018-09-02T01:14:34.715Z,12.91
2018-09-02T01:15:33.547Z,12.85
2018-09-02T01:16:33.946Z,12.85
2018-09-02T01:17:33.953Z,12.76
2018-09-02T01:18:30.017Z,12.83
2018-09-02T01:19:30.190Z,12.78
2018-09-02T01:20:30.373Z,12.78
2018-09-02T01:21:30.557Z,12.87
2018-09-02T01:22:38.236Z,12.79
2018-09-02T01:23:38.307Z,12.78
2018-09-02T01:24:31.102Z,12.67
2018-09-02T01:25:31.279Z,12.62
2018-09-02T01:26:31.464Z,12.62
2018-09-02T01:27:31.640Z,12.70
2018-09-02T01:28:31.829Z,12.72
2018-09-02T01:29:32.016Z,12.64
2018-09-02T01:30:32.212Z,12.70
2018-09-02T01:31:32.368Z,12.64
2018-09-02T01:32:32.543Z,12.67
2018-09-02T01:33:32.729Z,12.60
2018-09-02T01:34:32.915Z,12.61
2018-09-02T01:35:33.098Z,12.58
2018-09-02T01:36:33.282Z,12.67
2018-09-02T01:37:33.471Z,12.65
2018-09-02T01:38:33.655Z,12.61
2018-09-02T01:39:33.851Z,12.61
2018-09-02T01:40:34.026Z,12.68
2018-09-02T01:41:34.207Z,12.60
2018-09-02T01:42:34.386Z,12.54
2018-09-02T01:43:34.577Z,12.65
2018-09-02T01:44:34.770Z,12.46
2018-09-02T01:45:34.950Z,12.45
2018-09-02T01:46:35.132Z,12.46
2018-09-02T01:47:35.306Z,12.50
2018-09-02T01:48:35.489Z,12.49
2018-09-02T01:49:35.668Z,12.46
2018-09-02T01:50:35.867Z,12.60
2018-09-02T01:51:36.050Z,12.64
2018-09-02T01:52:36.279Z,12.65
2018-09-02T01:53:36.331Z,12.67
2018-09-02T01:54:36.505Z,12.68
2018-09-02T01:55:36.684Z,12.79
2018-09-02T01:56:36.856Z,12.72
2018-09-02T01:57:37.040Z,12.80
2018-09-02T01:58:37.223Z,12.76
2018-09-02T01:59:37.398Z,12.87
2018-09-02T02:00:37.591Z,12.93
2018-09-02T02:01:37.774Z,12.97
2018-09-02T02:02:37.960Z,13.00
2018-09-02T02:03:38.146Z,12.94
2018-09-02T02:04:38.342Z,12.87
2018-09-02T02:05:38.519Z,12.94
2018-09-02T02:06:38.698Z,13.01
2018-09-02T02:07:38.881Z,12.97
2018-09-02T02:08:39.065Z,13.00
2018-09-02T02:09:39.247Z,13.04
2018-09-02T02:10:39.441Z,12.95
2018-09-02T02:11:39.618Z,13.00
2018-09-02T02:12:39.801Z,12.98
2018-09-02T02:13:39.978Z,13.00
2018-09-02T02:14:40.155Z,13.05
2018-09-02T02:15:40.336Z,12.95
2018-09-02T02:16:40.511Z,13.03
2018-09-02T02:17:40.687Z,13.01
2018-09-02T02:18:40.854Z,12.97
2018-09-02T02:19:41.035Z,12.97
2018-09-02T02:20:41.223Z,13.08
2018-09-02T02:21:41.401Z,13.11
2018-09-02T02:22:41.609Z,13.01
2018-09-02T02:23:41.784Z,13.05
2018-09-02T02:24:41.981Z,13.03
2018-09-02T02:25:42.162Z,13.04
2018-09-02T02:26:46.594Z,13.12
2018-09-02T02:27:46.910Z,13.13
2018-09-02T02:28:45.934Z,13.09
2018-09-02T02:29:44.959Z,12.97
2018-09-02T02:30:45.437Z,13.05
2018-09-02T02:31:46.001Z,13.04
2018-09-02T02:32:47.478Z,13.05
2018-09-02T02:33:50.993Z,12.95
2018-09-02T02:34:46.388Z,13.00
2018-09-02T02:35:46.818Z,12.95
2018-09-02T02:36:44.025Z,12.94
2018-09-02T02:37:46.699Z,12.86
2018-09-02T02:38:47.251Z,12.93
2018-09-02T02:39:48.417Z,12.94
2018-09-02T02:40:47.291Z,12.72
2018-09-02T02:41:47.960Z,12.72
2018-09-02T02:42:44.991Z,12.67
2018-09-02T02:43:48.300Z,12.61
2018-09-02T02:44:48.455Z,12.61
2018-09-02T02:45:45.461Z,12.68
2018-09-02T02:46:49.363Z,12.68
2018-09-02T02:47:49.917Z,12.61
2018-09-02T02:48:49.846Z,12.60
2018-09-02T02:49:48.314Z,12.58
2018-09-02T02:50:50.133Z,12.62
2018-09-02T02:51:51.671Z,12.61
2018-09-02T02:52:51.750Z,12.60
2018-09-02T02:53:49.564Z,12.60
2018-09-02T02:54:46.956Z,12.61
2018-09-02T02:55:47.129Z,12.62
2018-09-02T02:56:47.327Z,12.62
2018-09-02T02:57:47.505Z,12.53
2018-09-02T02:58:47.708Z,12.40
2018-09-02T02:59:47.891Z,12.50
2018-09-02T03:00:48.074Z,12.57
2018-09-02T03:01:48.261Z,12.58
2018-09-02T03:02:48.440Z,12.60
2018-09-02T03:03:48.621Z,12.62
2018-09-02T03:04:48.807Z,12.47
2018-09-02T03:05:48.994Z,12.37
2018-09-02T03:06:49.183Z,12.36
2018-09-02T03:07:49.411Z,12.29
2018-09-02T03:08:49.473Z,12.39
2018-09-02T03:09:49.654Z,12.37
2018-09-02T03:10:49.857Z,12.31
2018-09-02T03:11:50.006Z,12.32
2018-09-02T03:12:50.179Z,12.36
2018-09-02T03:13:50.359Z,12.29
2018-09-02T03:14:51.892Z,12.35
2018-09-02T03:15:50.698Z,12.37
2018-09-02T03:16:50.879Z,12.47
2018-09-02T03:17:51.110Z,12.45
2018-09-02T03:18:51.168Z,12.36
2018-09-02T03:19:51.351Z,12.35
2018-09-02T03:20:51.523Z,12.39
2018-09-02T03:21:51.711Z,12.36
2018-09-02T03:22:51.885Z,12.42
2018-09-02T03:23:52.069Z,12.39
2018-09-02T03:24:52.258Z,12.40
2018-09-02T03:25:52.434Z,12.50
2018-09-02T03:26:52.624Z,12.36
2018-09-02T03:27:52.827Z,12.43
2018-09-02T03:28:53.002Z,12.35
2018-09-02T03:29:53.189Z,12.35
2018-09-02T03:30:53.372Z,12.39
2018-09-02T03:31:53.557Z,12.37
2018-09-02T03:32:53.758Z,12.39
2018-09-02T03:33:53.936Z,12.31
2018-09-02T03:34:54.117Z,12.37
2018-09-02T03:35:54.306Z,12.29
2018-09-02T03:36:54.489Z,12.32
2018-09-02T03:37:54.675Z,12.39
2018-09-02T03:38:54.869Z,12.28
2018-09-02T04:07:35.561Z,12.67
2018-09-02T04:08:33.628Z,12.73
2018-09-02T04:09:33.991Z,12.85
2018-09-02T04:10:32.931Z,12.78
2018-09-02T04:11:33.109Z,12.83
2018-09-02T04:12:33.283Z,12.83
2018-09-02T04:13:33.466Z,12.83
2018-09-02T04:14:33.634Z,12.82
2018-09-02T04:15:33.807Z,12.90
2018-09-02T04:16:33.990Z,12.93
2018-09-02T04:17:34.183Z,12.79
2018-09-02T04:18:34.365Z,12.80
2018-09-02T04:19:34.536Z,12.91
2018-09-02T04:20:34.705Z,12.95
2018-09-02T04:21:34.872Z,13.00
2018-09-02T04:22:35.052Z,13.01
2018-09-02T04:23:35.235Z,12.98
2018-09-02T04:24:35.419Z,13.01
2018-09-02T04:25:35.597Z,13.08
2018-09-02T04:26:35.774Z,13.00
2018-09-02T04:27:35.969Z,13.00
2018-09-02T04:28:36.155Z,13.11
2018-09-02T04:29:36.354Z,13.11
2018-09-02T04:30:36.539Z,13.01
2018-09-02T04:31:36.719Z,13.05
2018-09-02T04:32:36.892Z,12.98
2018-09-02T04:33:37.133Z,13.09
2018-09-02T04:34:37.259Z,13.04
2018-09-02T04:35:37.432Z,13.13
2018-09-02T04:36:37.611Z,13.03
2018-09-02T04:37:37.789Z,13.09
2018-09-02T04:38:37.964Z,13.13
2018-09-02T04:39:38.154Z,13.01
2018-09-02T04:40:41.044Z,13.00
2018-09-02T04:41:39.512Z,13.18
2018-09-02T04:42:38.706Z,13.00
2018-09-02T04:43:38.879Z,13.09
2018-09-02T04:44:39.064Z,13.12
2018-09-02T04:45:39.236Z,13.12
2018-09-02T04:46:39.407Z,13.13
2018-09-02T04:47:39.587Z,13.19
2018-09-02T04:48:39.780Z,13.19
2018-09-02T04:49:39.958Z,13.33
2018-09-02T04:50:40.137Z,13.20
2018-09-02T04:51:40.309Z,13.33
2018-09-02T04:52:40.490Z,13.35
2018-09-02T04:53:44.633Z,13.31
2018-09-02T04:54:41.092Z,13.35
2018-09-02T04:55:40.948Z,13.35
2018-09-02T04:56:41.123Z,13.47
2018-09-02T04:57:41.312Z,13.39
2018-09-02T04:58:41.479Z,13.44
2018-09-02T04:59:41.656Z,13.37
2018-09-02T05:00:41.834Z,13.52
2018-09-02T05:01:42.662Z,13.53
2018-09-02T05:02:44.793Z,13.59
2018-09-02T05:03:42.272Z,13.60
2018-09-02T05:04:42.439Z,13.59
2018-09-02T05:05:42.611Z,13.65
2018-09-02T05:06:42.789Z,13.57
2018-09-02T05:07:44.260Z,13.74
2018-09-02T05:08:44.884Z,13.70
2018-09-02T05:09:43.607Z,13.72
2018-09-02T05:10:45.108Z,13.70
2018-09-02T05:11:44.351Z,13.77
2018-09-02T05:12:43.716Z,13.71
2018-09-02T05:13:43.899Z,13.85
2018-09-02T05:14:44.081Z,13.86
2018-09-02T05:15:44.259Z,13.89
2018-09-02T05:16:44.438Z,13.90
2018-09-02T05:17:44.658Z,13.93
2018-09-02T05:18:44.832Z,14.04
2018-09-02T05:19:45.037Z,13.99
2018-09-02T05:20:45.210Z,13.99
2018-09-02T05:21:45.396Z,14.07
2018-09-02T05:22:45.591Z,14.15
2018-09-02T05:23:48.179Z,14.12
2018-09-02T05:24:46.549Z,14.28
2018-09-02T05:25:50.409Z,14.26
2018-09-02T05:26:46.200Z,14.22
2018-09-02T05:27:46.368Z,14.32
2018-09-02T05:28:46.549Z,14.33
2018-09-02T05:29:46.729Z,14.47
2018-09-02T05:30:46.909Z,14.36
2018-09-02T05:31:47.083Z,14.43
2018-09-02T05:32:47.256Z,14.37
2018-09-02T05:33:47.439Z,14.51
2018-09-02T05:34:47.610Z,14.44
2018-09-02T05:35:47.796Z,14.47
2018-09-02T05:36:48.032Z,14.44
2018-09-02T05:37:48.150Z,14.50
2018-09-02T05:38:48.344Z,14.58
2018-09-02T05:39:48.500Z,14.55
2018-09-02T05:40:48.698Z,14.68
2018-09-02T05:41:48.896Z,14.58
2018-09-02T05:42:49.046Z,14.65
2018-09-02T05:43:49.269Z,14.65
2018-09-02T05:44:49.394Z,14.62
2018-09-02T05:45:49.576Z,14.82
2018-09-02T05:46:49.743Z,14.84
2018-09-02T05:47:49.913Z,14.81
2018-09-02T05:48:50.093Z,14.86
2018-09-02T05:49:50.278Z,14.92
2018-09-02T05:50:50.459Z,15.02
2018-09-02T05:51:50.634Z,14.97
2018-09-02T05:52:50.814Z,15.04
2018-09-02T05:53:50.987Z,15.02
2018-09-02T05:54:51.163Z,15.09
2018-09-02T05:55:51.345Z,15.07
2018-09-02T05:56:51.528Z,15.11
2018-09-02T05:57:51.712Z,15.17
2018-09-02T05:58:51.894Z,15.18
2018-09-02T05:59:52.066Z,15.21
2018-09-02T06:00:52.240Z,15.35
2018-09-02T06:01:52.420Z,15.37
2018-09-02T06:02:52.704Z,15.40
2018-09-02T06:03:52.783Z,15.47
2018-09-02T06:04:52.954Z,15.64
2018-09-02T06:05:53.127Z,15.57
2018-09-02T06:06:53.304Z,15.68
2018-09-02T06:07:53.527Z,15.65
2018-09-02T06:08:53.666Z,15.70
2018-09-02T06:09:53.845Z,15.80
2018-09-02T06:10:58.518Z,15.90
2018-09-02T06:11:54.218Z,15.91
2018-09-02T06:12:54.402Z,16.00
2018-09-02T06:13:54.622Z,16.04
2018-09-02T06:14:54.700Z,16.12
2018-09-02T06:15:54.881Z,16.12
2018-09-02T06:16:55.251Z,16.23
2018-09-02T06:17:55.236Z,16.29
2018-09-02T06:18:55.306Z,16.26
2018-09-02T06:19:55.491Z,16.26
2018-09-02T06:20:55.662Z,16.20
2018-09-02T06:21:55.843Z,16.26
2018-09-02T06:22:56.020Z,16.28
2018-09-02T06:23:56.199Z,16.31
2018-09-02T06:24:56.388Z,16.26
2018-09-02T06:25:56.562Z,16.38
2018-09-02T06:26:56.739Z,16.36
2018-09-02T06:27:56.904Z,16.49
2018-09-02T06:28:57.083Z,16.39
2018-09-02T06:29:57.289Z,16.53
2018-09-02T06:30:57.452Z,16.50
2018-09-02T06:31:57.626Z,16.47
2018-09-02T06:32:57.868Z,16.64
2018-09-02T06:33:57.980Z,16.74
2018-09-02T06:34:58.153Z,16.76
2018-09-02T06:35:58.337Z,16.86
2018-09-02T06:36:58.532Z,16.99
2018-09-02T06:37:58.702Z,17.02
2018-09-02T06:38:58.883Z,16.97
2018-09-02T06:39:59.050Z,16.99
2018-09-02T06:40:59.227Z,17.02
2018-09-02T06:41:59.403Z,16.99
2018-09-02T06:42:59.584Z,17.08
2018-09-02T06:43:59.761Z,17.15
2018-09-02T06:44:59.936Z,17.26
2018-09-02T06:46:00.112Z,17.26
2018-09-02T06:47:01.089Z,17.23
2018-09-02T06:48:02.619Z,17.22
2018-09-02T06:49:00.709Z,17.24
2018-09-02T06:50:00.881Z,17.31
2018-09-02T06:51:01.053Z,17.34
2018-09-02T06:52:01.301Z,17.45
2018-09-02T06:53:01.411Z,17.46
2018-09-02T06:54:01.591Z,17.51
2018-09-02T06:55:01.756Z,17.59
2018-09-02T06:56:01.929Z,17.74
2018-09-02T06:57:02.100Z,17.86
2018-09-02T06:58:02.276Z,18.07
2018-09-02T06:59:02.456Z,18.47
2018-09-02T07:00:02.638Z,18.88
2018-09-02T07:01:02.817Z,19.22
2018-09-02T07:02:03.012Z,19.73
2018-09-02T07:03:03.219Z,20.24
2018-09-02T07:04:03.493Z,20.87
2018-09-02T07:05:03.692Z,21.51
2018-09-02T07:06:03.745Z,22.07
2018-09-02T07:07:03.922Z,22.14
2018-09-02T07:08:04.102Z,22.00
2018-09-02T07:09:04.274Z,22.15
2018-09-02T07:10:04.479Z,22.39
2018-09-02T07:11:04.643Z,22.85
2018-09-02T07:12:04.852Z,23.13
2018-09-02T07:13:05.001Z,22.75
2018-09-02T07:14:05.179Z,22.54
2018-09-02T07:15:05.355Z,22.29
2018-09-02T07:16:05.551Z,22.04
2018-09-02T07:17:05.757Z,21.80
2018-09-02T07:18:06.003Z,21.40
2018-09-02T07:19:06.059Z,21.37
2018-09-02T07:20:06.299Z,21.42
2018-09-02T07:21:06.379Z,21.75
2018-09-02T07:22:06.566Z,21.67
2018-09-02T07:23:06.835Z,21.60
2018-09-02T07:24:06.948Z,21.42
2018-09-02T07:25:07.012Z,21.60
2018-09-02T07:26:07.185Z,21.70
2018-09-02T07:27:09.329Z,21.75
2018-09-02T07:28:08.560Z,22.13
2018-09-02T07:29:08.822Z,22.02
2018-09-02T07:30:07.865Z,21.75
2018-09-02T07:31:08.058Z,21.55
2018-09-02T07:32:08.512Z,21.30
2018-09-02T07:33:08.477Z,21.02
2018-09-02T07:34:08.656Z,20.88
2018-09-02T07:35:08.866Z,20.87
2018-09-02T07:36:09.059Z,20.47
2018-09-02T07:37:10.459Z,20.37
2018-09-02T07:38:11.556Z,20.19
2018-09-02T07:39:11.240Z,20.04
2018-09-02T07:40:10.378Z,19.99
2018-09-02T07:41:10.039Z,19.94
2018-09-02T07:42:11.132Z,19.81
2018-09-02T07:43:10.272Z,19.73
2018-09-02T07:44:10.687Z,19.67
2018-09-02T07:45:10.699Z,19.64
2018-09-02T07:46:10.866Z,19.56
2018-09-02T07:47:11.187Z,19.48
2018-09-02T07:48:11.218Z,19.47
2018-09-02T07:49:11.391Z,19.37
2018-09-02T07:50:11.468Z,19.30
2018-09-02T07:51:11.668Z,19.27
2018-09-02T07:52:11.996Z,19.29
2018-09-02T07:53:12.156Z,19.18
2018-09-02T07:54:12.757Z,19.33
2018-09-02T07:55:13.034Z,19.24
2018-09-02T07:56:13.752Z,19.26
2018-09-02T07:57:13.601Z,19.29
2018-09-02T07:58:12.907Z,19.34
2018-09-02T07:59:14.033Z,19.34
2018-09-02T08:00:13.203Z,19.47
2018-09-02T08:01:13.293Z,19.49
2018-09-02T08:02:13.590Z,19.58
2018-09-02T08:03:13.788Z,19.56
2018-09-02T08:04:14.000Z,19.49
2018-09-02T08:05:14.153Z,19.54
2018-09-02T08:06:14.229Z,19.70
2018-09-02T08:07:14.522Z,19.79
2018-09-02T08:08:14.804Z,19.82
2018-09-02T08:09:15.337Z,19.99
2018-09-02T08:10:15.083Z,20.31
2018-09-02T08:11:15.061Z,20.43
2018-09-02T08:12:15.301Z,20.39
2018-09-02T08:13:15.268Z,20.41
2018-09-02T08:14:15.455Z,20.47
2018-09-02T08:15:15.673Z,20.50
2018-09-02T08:16:17.628Z,20.50
2018-09-02T08:17:16.093Z,20.39
2018-09-02T08:18:17.432Z,20.19
2018-09-02T08:19:16.421Z,20.09
2018-09-02T08:20:16.594Z,20.02
2018-09-02T08:21:16.744Z,19.91
2018-09-02T08:22:18.076Z,19.86
2018-09-02T08:23:18.711Z,19.82
2018-09-02T08:24:18.285Z,19.81
2018-09-02T08:25:19.408Z,19.77
2018-09-02T08:26:18.274Z,19.76
2018-09-02T08:27:17.942Z,19.66
2018-09-02T08:28:17.899Z,19.59
2018-09-02T08:29:18.298Z,19.67
2018-09-02T08:30:18.263Z,19.70
2018-09-02T08:31:18.438Z,19.66
2018-09-02T08:32:18.628Z,19.82
2018-09-02T08:33:18.850Z,19.82
2018-09-02T08:34:18.906Z,19.85
2018-09-02T08:35:19.126Z,19.85
2018-09-02T08:36:19.303Z,19.77
2018-09-02T08:37:19.491Z,19.86
2018-09-02T08:38:19.678Z,19.82
2018-09-02T08:39:19.975Z,19.85
2018-09-02T08:40:20.091Z,19.81
2018-09-02T08:41:20.271Z,19.91
2018-09-02T08:42:20.449Z,19.81
2018-09-02T08:43:20.637Z,19.76
2018-09-02T08:44:20.887Z,19.79
2018-09-02T08:45:21.000Z,19.86
2018-09-02T08:46:21.189Z,19.82
2018-09-02T08:47:21.426Z,19.69
2018-09-02T08:48:21.568Z,19.64
2018-09-02T08:49:21.743Z,19.77
2018-09-02T08:50:21.931Z,19.71
2018-09-02T08:51:22.113Z,19.76
2018-09-02T08:52:22.292Z,19.58
2018-09-02T08:53:22.471Z,19.69
2018-09-02T08:54:22.648Z,19.69
2018-09-02T08:55:22.835Z,19.70
2018-09-02T08:56:23.019Z,19.67
2018-09-02T08:57:23.212Z,19.64
2018-09-02T08:58:23.393Z,19.66
2018-09-02T08:59:23.578Z,19.70
2018-09-02T09:00:23.757Z,19.85
2018-09-02T09:01:23.946Z,19.89
2018-09-02T09:02:24.130Z,19.92
2018-09-02T09:03:24.310Z,20.03
2018-09-02T09:04:24.484Z,20.03
2018-09-02T09:05:24.663Z,20.03
2018-09-02T09:06:24.840Z,20.19
2018-09-02T09:07:25.029Z,20.19
2018-09-02T09:08:25.434Z,20.14
2018-09-02T09:09:25.394Z,20.40
2018-09-02T09:10:25.576Z,20.40
2018-09-02T09:11:25.750Z,20.36
2018-09-02T09:12:25.935Z,20.39
2018-09-02T09:13:26.129Z,20.55
2018-09-02T09:14:26.306Z,20.52
2018-09-02T09:15:26.489Z,20.50
2018-09-02T09:16:26.692Z,20.62
2018-09-02T09:17:26.875Z,20.65
2018-09-02T09:18:27.060Z,20.62
2018-09-02T09:19:27.237Z,20.62
2018-09-02T09:20:27.434Z,20.58
2018-09-02T09:21:27.662Z,20.66
2018-09-02T09:22:27.846Z,20.65
2018-09-02T09:23:27.986Z,20.67
2018-09-02T09:24:28.171Z,20.74
2018-09-02T09:25:28.358Z,20.70
2018-09-02T09:26:28.561Z,20.60
2018-09-02T09:27:28.764Z,20.56
2018-09-02T09:28:28.873Z,20.65
2018-09-02T09:29:28.944Z,20.58
2018-09-02T09:30:29.641Z,20.55
2018-09-02T09:31:29.339Z,20.59
2018-09-02T09:32:29.878Z,20.67
2018-09-02T09:33:30.110Z,20.69
2018-09-02T09:34:29.742Z,20.69
2018-09-02T09:35:29.929Z,20.60
2018-09-02T09:36:30.110Z,20.62
2018-09-02T09:37:30.288Z,20.50
2018-09-02T09:38:30.514Z,20.58
2018-09-02T09:39:30.700Z,20.56
2018-09-02T09:40:30.874Z,20.60
2018-09-02T09:41:31.049Z,20.58
2018-09-02T09:42:31.270Z,20.48
2018-09-02T09:43:31.493Z,20.51
2018-09-02T09:44:31.690Z,20.41
2018-09-02T09:45:31.953Z,20.55
2018-09-02T09:46:32.069Z,20.50
2018-09-02T09:47:32.291Z,20.48
2018-09-02T09:48:32.470Z,20.43
2018-09-02T09:49:32.668Z,20.41
2018-09-02T09:50:32.857Z,20.32
2018-09-02T09:51:33.275Z,20.31
2018-09-02T09:52:33.248Z,20.39
2018-09-02T09:53:33.474Z,20.43
2018-09-02T09:54:33.653Z,20.34
2018-09-02T09:55:34.019Z,20.47
2018-09-02T09:56:33.980Z,20.41
2018-09-02T09:57:34.228Z,20.41
2018-09-02T09:58:34.411Z,20.47
2018-09-02T09:59:34.878Z,20.48
2018-09-02T10:00:36.267Z,20.52
2018-09-02T10:01:36.591Z,20.55
2018-09-02T10:02:35.493Z,20.58
2018-09-02T10:03:35.552Z,20.63
2018-09-02T10:04:35.726Z,20.67
2018-09-02T10:05:36.522Z,20.74
2018-09-02T10:06:35.928Z,20.69
2018-09-02T10:07:37.794Z,20.60
2018-09-02T10:08:36.657Z,20.77
2018-09-02T10:09:36.364Z,20.72
2018-09-02T10:10:36.590Z,20.75
2018-09-02T10:11:37.007Z,20.74
2018-09-02T10:12:36.894Z,20.77
2018-09-02T10:13:37.144Z,20.72
2018-09-02T10:14:37.197Z,20.81
2018-09-02T10:15:37.425Z,20.82
2018-09-02T10:16:37.778Z,20.69
2018-09-02T10:17:38.305Z,20.74
2018-09-02T10:18:40.752Z,20.72
2018-09-02T10:19:38.075Z,20.72
2018-09-02T10:20:38.278Z,20.74
2018-09-02T10:21:38.447Z,20.70
2018-09-02T10:22:38.770Z,20.75
2018-09-02T10:23:38.872Z,20.63
2018-09-02T10:24:39.050Z,20.70
2018-09-02T10:25:39.264Z,20.70
2018-09-02T10:26:39.349Z,20.65
2018-09-02T10:27:39.628Z,20.67
2018-09-02T10:28:39.675Z,20.69
2018-09-02T10:29:39.879Z,20.62
2018-09-02T10:30:40.081Z,20.47
2018-09-02T10:31:40.249Z,20.37
2018-09-02T10:32:40.679Z,20.34
2018-09-02T10:33:40.847Z,20.34
2018-09-02T10:34:40.683Z,20.47
2018-09-02T10:35:40.872Z,20.43
2018-09-02T10:36:41.094Z,20.34
2018-09-02T10:37:41.270Z,20.31
2018-09-02T10:38:41.510Z,20.36
2018-09-02T10:39:41.563Z,20.21
2018-09-02T10:40:41.760Z,20.16
2018-09-02T10:41:41.935Z,20.16
2018-09-02T10:42:42.602Z,20.13
2018-09-02T10:43:42.317Z,20.04
2018-09-02T10:44:42.372Z,19.94
2018-09-02T10:45:42.557Z,19.95
2018-09-02T10:46:42.740Z,19.85
2018-09-02T10:47:42.924Z,19.88
2018-09-02T10:48:43.105Z,19.92
2018-09-02T10:49:43.356Z,19.88
2018-09-02T10:50:43.482Z,19.91
2018-09-02T10:51:43.689Z,19.85
2018-09-02T10:52:43.922Z,19.82
2018-09-02T10:53:43.976Z,19.88
2018-09-02T10:54:44.157Z,19.91
2018-09-02T10:55:44.426Z,19.89
2018-09-02T10:56:44.497Z,19.86
2018-09-02T10:57:44.731Z,19.96
2018-09-02T10:58:44.885Z,19.94
2018-09-02T10:59:45.207Z,19.99
2018-09-02T11:00:45.271Z,19.99
2018-09-02T11:01:47.079Z,19.99
2018-09-02T11:02:45.831Z,20.04
2018-09-02T11:03:45.899Z,20.04
2018-09-02T11:04:46.113Z,20.04
2018-09-02T11:05:46.299Z,20.10
2018-09-02T11:06:46.484Z,20.14
2018-09-02T11:07:46.741Z,20.26
2018-09-02T11:08:47.026Z,20.18
2018-09-02T11:09:47.030Z,20.21
2018-09-02T11:10:47.244Z,20.34
2018-09-02T11:11:47.434Z,20.18
2018-09-02T11:12:47.616Z,20.18
2018-09-02T11:13:48.308Z,20.18
2018-09-02T11:14:47.971Z,20.10
2018-09-02T11:15:48.374Z,20.18
2018-09-02T11:16:48.534Z,20.14
2018-09-02T11:17:48.911Z,20.18
2018-09-02T11:18:49.235Z,20.21
2018-09-02T11:19:48.809Z,20.22
2018-09-02T11:20:49.026Z,20.24
2018-09-02T11:21:49.233Z,20.24
2018-09-02T11:22:50.345Z,20.22
2018-09-02T11:23:50.686Z,20.18
2018-09-02T11:24:51.134Z,20.22
2018-09-02T11:25:51.247Z,20.21
2018-09-02T11:26:50.875Z,20.18
2018-09-02T11:27:53.502Z,20.22
2018-09-02T11:28:50.492Z,20.06
2018-09-02T11:29:51.615Z,20.07
2018-09-02T11:30:51.706Z,20.07
2018-09-02T11:31:51.644Z,20.03
2018-09-02T11:32:55.571Z,20.10
2018-09-02T11:33:52.213Z,20.04
2018-09-02T11:34:52.182Z,19.95
2018-09-02T11:35:53.423Z,19.88
2018-09-02T11:36:53.124Z,19.86
2018-09-02T11:37:53.314Z,19.91
2018-09-02T11:38:53.134Z,19.92
2018-09-02T11:39:52.787Z,19.91
2018-09-02T11:40:52.852Z,20.02
2018-09-02T11:41:53.497Z,20.02
2018-09-02T11:42:54.567Z,20.06
2018-09-02T11:43:53.902Z,20.00
2018-09-02T11:44:53.703Z,19.85
2018-09-02T11:45:54.286Z,19.94
2018-09-02T11:46:56.586Z,19.81
2018-09-02T11:47:55.179Z,19.82
2018-09-02T11:48:54.304Z,19.79
2018-09-02T11:49:54.456Z,19.77
2018-09-02T11:50:54.221Z,19.79
2018-09-02T11:51:54.999Z,19.67
2018-09-02T11:52:56.039Z,19.67
2018-09-02T11:53:55.560Z,19.79
2018-09-02T11:54:55.118Z,19.89
2018-09-02T11:55:56.691Z,19.88
2018-09-02T11:56:55.215Z,19.94
2018-09-02T11:57:55.648Z,19.88
2018-09-02T11:58:58.599Z,19.91
2018-09-02T11:59:55.489Z,19.82
2018-09-02T12:00:56.290Z,19.89
2018-09-02T12:01:55.858Z,19.95
2018-09-02T12:02:56.114Z,19.94
2018-09-02T12:03:56.576Z,20.02
2018-09-02T12:04:56.495Z,19.96
2018-09-02T12:05:56.705Z,20.00
2018-09-02T12:06:56.770Z,20.00
2018-09-02T12:07:56.950Z,20.07
2018-09-02T12:08:57.566Z,20.13
2018-09-02T12:09:57.379Z,20.21
2018-09-02T12:10:57.425Z,20.29
2018-09-02T12:11:58.856Z,20.18
2018-09-02T12:12:57.893Z,20.25
2018-09-02T12:13:58.058Z,20.19
2018-09-02T12:14:58.273Z,20.29
2018-09-02T12:15:58.954Z,20.31
2018-09-02T12:16:58.502Z,20.37
2018-09-02T12:17:58.691Z,20.40
2018-09-02T12:18:58.864Z,20.51
2018-09-02T12:19:59.109Z,20.69
2018-09-02T12:21:00.226Z,20.66
2018-09-02T12:22:01.272Z,20.74
2018-09-02T12:23:02.055Z,20.88
2018-09-02T12:24:01.315Z,20.90
2018-09-02T12:25:04.480Z,21.03
2018-09-02T12:26:01.980Z,21.03
2018-09-02T12:27:02.585Z,20.96
2018-09-02T12:28:00.486Z,21.03
2018-09-02T12:29:00.707Z,21.06
2018-09-02T12:30:04.247Z,21.05
2018-09-02T12:31:03.115Z,20.97
2018-09-02T12:32:02.556Z,21.03
2018-09-02T12:33:03.937Z,21.00
2018-09-02T12:34:01.437Z,20.99
2018-09-02T12:35:02.266Z,20.99
2018-09-02T12:36:03.191Z,20.97
2018-09-02T12:37:04.668Z,20.93
2018-09-02T12:38:04.978Z,21.00
2018-09-02T12:39:02.316Z,20.90
2018-09-02T12:40:05.983Z,20.87
2018-09-02T12:41:05.387Z,20.74
2018-09-02T12:42:05.307Z,20.69
2018-09-02T12:43:05.479Z,20.70
2018-09-02T12:44:03.673Z,20.74
2018-09-02T12:45:05.839Z,20.67
2018-09-02T12:46:05.419Z,20.55
2018-09-02T12:47:04.340Z,20.50
2018-09-02T12:48:05.048Z,20.58
2018-09-02T12:49:06.585Z,20.52
2018-09-02T12:50:07.246Z,20.51
2018-09-02T12:51:04.325Z,20.44
2018-09-02T12:52:06.105Z,20.31
2018-09-02T12:53:07.649Z,20.37
2018-09-02T12:54:05.775Z,20.32
2018-09-02T12:55:06.454Z,20.18
2018-09-02T12:56:06.639Z,20.22
2018-09-02T12:57:05.644Z,20.03
2018-09-02T12:58:08.548Z,20.21
2018-09-02T12:59:05.463Z,20.18
2018-09-02T13:00:08.991Z,20.18
2018-09-02T13:01:06.906Z,20.13
2018-09-02T13:02:07.528Z,20.06
2018-09-02T13:03:07.275Z,20.13
2018-09-02T13:04:07.555Z,20.21
2018-09-02T13:05:08.588Z,20.18
2018-09-02T13:06:07.947Z,20.11
2018-09-02T13:07:09.993Z,20.10
2018-09-02T13:08:11.178Z,20.10
2018-09-02T13:09:08.202Z,19.89
2018-09-02T13:10:09.890Z,19.91
2018-09-02T13:11:08.208Z,20.00
2018-09-02T13:12:09.847Z,20.02
2018-09-02T13:13:07.661Z,20.04
2018-09-02T13:14:09.523Z,20.00
2018-09-02T13:15:08.564Z,19.96
2018-09-02T13:16:09.164Z,19.96
2018-09-02T13:17:12.330Z,20.00
2018-09-02T13:18:09.960Z,19.91
2018-09-02T13:19:09.591Z,20.02
2018-09-02T13:20:10.221Z,20.03
2018-09-02T13:21:09.925Z,20.03
2018-09-02T13:22:09.491Z,19.91